Time;durP1;ratioP1;P1;durP2;ratioP2;P2;SDS_P1;SDS_P2;PMS_P1;PMS_P2;Temp;Humidity;BMP_temperature;BMP_pressure;BME280_temperature;BME280_humidity;BME280_pressure;Samples;Min_cycle;Max_cycle;Signal;HPM_P1;HPM_P2
2023/08/11 11:32:27;;;;;;;;;;;;;;;;;;5494570;23;19922;-79
2023/08/11 11:34:52;;;;;;;;;;;;;;;;;;4996925;28;19918;-79
2023/08/11 11:37:17;;;;;;;;;;;;;;;;;;4996855;28;20001;-79
2023/08/11 11:39:43;;;;;;;;;;;;;;;;;;4997240;28;19914;-79
2023/08/11 11:42:09;;;;;;;;;;;;;;;;;;4997305;28;19967;-88
2023/08/11 11:44:35;;;;;;;;;;;;;;;;;;4997674;28;20253;-88
2023/08/11 11:47:02;;;;;;;;;;;;;;;;;;4997867;28;19992;-91
2023/08/11 16:32:49;;;;;;;;;;;;;;;;;;5144400;23;20296;-96
2023/08/11 16:35:14;;;;;;;;;;;;;;;;;;4941148;29;19997;-94
2023/08/11 16:37:40;;;;;;;;;;;;;;;;;;4941315;29;19915;-94
2023/08/11 16:40:05;;;;;;;;;;;;;;;;;;4940865;29;20005;-95
2023/08/11 16:42:31;;;;;;;;;;;;;;;;;;4940168;29;20349;-93
2023/08/11 16:44:56;;;;;;;;;;;;;;;;;;4943241;29;19918;-92
2023/08/11 16:47:22;;;;;;;;;;;;;;;;;;4944466;29;19915;-92
2023/08/11 16:49:47;;;;;;;;;;;;;;;;;;4940499;29;19914;-92
2023/08/11 16:52:12;;;;;;;;;;;;;;;;;;4957348;29;19915;-92
2023/08/11 16:54:38;;;;;;;;;;;;;;;;;;4957380;29;19922;-92
2023/08/11 16:57:03;;;;;;;;;;;;;;;;;;4957167;29;19983;-92
2023/08/11 16:59:28;;;;;;;;;;;;;;;;;;4939858;29;20005;-92
2023/08/11 17:01:54;;;;;;;;;;;;;;;;;;4939912;29;19914;-91
2023/08/11 17:04:19;;;;;;;;;;;;;;;;;;4939684;29;19914;-91
2023/08/11 17:06:44;;;;;;;;;;;;;;;;;;4939885;29;19914;-91
2023/08/11 17:09:10;;;;;;;;;;;;;;;;;;4939838;29;19922;-91
2023/08/11 17:11:35;;;;;;;;;;;;;;;;;;4939838;29;19914;-92
2023/08/11 17:14:00;;;;;;;;;;;;;;;;;;4939855;29;19925;-94
2023/08/11 17:16:27;;;;;;;;;;;;;;;;;;4941054;29;19921;-93
2023/08/11 17:18:52;;;;;;;;;;;;;;;;;;4939963;29;19922;-94
2023/08/11 17:21:18;;;;;;;;;;;;;;;;;;4940295;29;19926;-95
2023/08/11 17:23:45;;;;;;;;;;;;;;;;;;4957538;29;19970;-95
2023/08/11 17:26:12;;;;;;;;;;;;;;;;;;4940031;29;20332;-93
2023/08/11 17:28:38;;;;;;;;;;;;;;;;;;4940785;29;20453;-94
2023/08/11 17:31:03;;;;;;;;;;;;;;;;;;4940066;29;19953;-91
2023/08/11 17:33:28;;;;;;;;;;;;;;;;;;4956021;29;20001;-89
2023/08/11 17:35:54;;;;;;;;;;;;;;;;;;4956325;28;19915;-88
2023/08/11 17:38:19;;;;;;;;;;;;;;;;;;4939241;29;19953;-86
2023/08/11 17:40:44;;;;;;;;;;;;;;;;;;4939181;29;19914;-87
2023/08/11 17:43:10;;;;;;;;;;;;;;;;;;4956081;29;19941;-89
2023/08/11 17:45:35;;;;;;;;;;;;;;;;;;4956400;28;19918;-88
2023/08/11 17:48:00;;;;;;;;;;;;;;;;;;4956271;29;20289;-89
2023/08/11 17:50:26;;;;;;;;;;;;;;;;;;4938789;29;20369;-94
2023/08/11 17:52:51;;;;;;;;;;;;;;;;;;4938513;29;20408;-90
2023/08/11 17:55:16;;;;;;;;;;;;;;;;;;4939092;29;19961;-87
2023/08/11 17:57:42;;;;;;;;;;;;;;;;;;4939292;29;19914;-90
2023/08/11 18:00:09;;;;;;;;;;;;;;;;;;4956502;28;19914;-93
2023/08/11 18:02:34;;;;;;;;;;;;;;;;;;4939935;29;19985;-89
2023/08/11 18:05:00;;;;;;;;;;;;;;;;;;4942076;29;19958;-94
2023/08/11 18:07:25;;;;;;;;;;;;;;;;;;4940144;29;19917;-95
2023/08/11 18:09:51;;;;;;;;;;;;;;;;;;4956577;28;19914;-92
2023/08/11 18:12:16;;;;;;;;;;;;;;;;;;4939978;29;19984;-94
2023/08/11 18:14:54;;;;;;;;;;;;;;;;;;4924788;29;19918;-94
2023/08/11 18:17:19;;;;;;;;;;;;;;;;;;4941128;29;19982;-91
2023/08/11 18:19:44;;;;;;;;;;;;;;;;;;4938844;29;19958;-92
2023/08/11 18:22:10;;;;;;;;;;;;;;;;;;4956393;29;20262;-91
2023/08/11 18:24:35;;;;;;;;;;;;;;;;;;4939227;29;19922;-94
2023/08/11 18:27:00;;;;;;;;;;;;;;;;;;4938688;29;20349;-87
2023/08/11 18:29:26;;;;;;;;;;;;;;;;;;4955734;28;20009;-84
2023/08/11 18:31:51;;;;;;;;;;;;;;;;;;4955588;29;20064;-85
2023/08/11 18:34:16;;;;;;;;;;;;;;;;;;4955889;29;19926;-85
2023/08/11 18:36:42;;;;;;;;;;;;;;;;;;4956010;29;19914;-85
2023/08/11 18:39:08;;;;;;;;;;;;;;;;;;4955635;29;19925;-89
2023/08/11 18:41:33;;;;;;;;;;;;;;;;;;4938850;29;20345;-91
2023/08/11 18:43:58;;;;;;;;;;;;;;;;;;4938407;28;19914;-89
2023/08/11 18:46:24;;;;;;;;;;;;;;;;;;4955624;29;19915;-90
2023/08/11 18:48:50;;;;;;;;;;;;;;;;;;4955672;29;19915;-87
2023/08/11 18:51:16;;;;;;;;;;;;;;;;;;4955922;29;19914;-88
2023/08/11 18:53:41;;;;;;;;;;;;;;;;;;4956108;29;19921;-86
2023/08/11 18:56:16;;;;;;;;;;;;;;;;;;4956114;29;19914;-88
2023/08/11 18:58:42;;;;;;;;;;;;;;;;;;4955811;29;19921;-88
2023/08/11 19:01:08;;;;;;;;;;;;;;;;;;4955604;29;20017;-87
2023/08/11 19:03:33;;;;;;;;;;;;;;;;;;4955438;28;19954;-86
2023/08/11 19:05:59;;;;;;;;;;;;;;;;;;4941851;29;20008;-87
2023/08/11 19:08:24;;;;;;;;;;;;;;;;;;4959032;29;19914;-87
2023/08/11 19:10:49;;;;;;;;;;;;;;;;;;4958818;29;19914;-88
2023/08/11 19:13:15;;;;;;;;;;;;;;;;;;4941865;29;20329;-93
2023/08/11 19:15:40;;;;;;;;;;;;;;;;;;4959036;29;20309;-91
2023/08/11 19:18:05;;;;;;;;;;;;;;;;;;4958886;28;19922;-89
2023/08/11 19:20:31;;;;;;;;;;;;;;;;;;4959400;29;19956;-91
2023/08/11 19:22:56;;;;;;;;;;;;;;;;;;4941624;29;19914;-90
2023/08/11 19:25:21;;;;;;;;;;;;;;;;;;4941221;29;19918;-90
2023/08/11 19:27:47;;;;;;;;;;;;;;;;;;4958806;29;19968;-91
2023/08/11 19:30:12;;;;;;;;;;;;;;;;;;4958706;29;19915;-91
2023/08/11 19:32:37;;;;;;;;;;;;;;;;;;4941516;29;20393;-91
2023/08/11 19:35:04;;;;;;;;;;;;;;;;;;4937989;29;20267;-90
2023/08/11 19:37:29;;;;;;;;;;;;;;;;;;4939449;29;19915;-89
2023/08/11 19:39:55;;;;;;;;;;;;;;;;;;4939357;29;19911;-89
2023/08/11 19:42:21;;;;;;;;;;;;;;;;;;4940523;29;20304;-89
2023/08/11 19:44:46;;;;;;;;;;;;;;;;;;4939809;29;20273;-90
2023/08/11 19:47:11;;;;;;;;;;;;;;;;;;4938228;29;20337;-88
2023/08/11 19:49:37;;;;;;;;;;;;;;;;;;4938121;29;19915;-89
2023/08/11 19:52:02;;;;;;;;;;;;;;;;;;4938164;29;19919;-89
2023/08/11 19:54:28;;;;;;;;;;;;;;;;;;4939447;29;19973;-89
2023/08/11 19:56:53;;;;;;;;;;;;;;;;;;4940605;29;19962;-89
2023/08/11 19:59:18;;;;;;;;;;;;;;;;;;4939330;29;19915;-89
2023/08/11 20:01:44;;;;;;;;;;;;;;;;;;4939844;29;19921;-89
2023/08/11 20:04:09;;;;;;;;;;;;;;;;;;4939710;29;20076;-88
2023/08/11 20:06:34;;;;;;;;;;;;;;;;;;4939436;29;19915;-88
2023/08/11 20:09:00;;;;;;;;;;;;;;;;;;4937915;29;19915;-88
2023/08/11 20:11:25;;;;;;;;;;;;;;;;;;4940301;29;20405;-88
2023/08/11 20:13:50;;;;;;;;;;;;;;;;;;4940460;29;19915;-88
2023/08/11 20:16:17;;;;;;;;;;;;;;;;;;4939250;29;19915;-88
2023/08/11 20:18:43;;;;;;;;;;;;;;;;;;4940174;29;19915;-87
2023/08/11 20:21:08;;;;;;;;;;;;;;;;;;4940478;29;19926;-88
2023/08/11 20:23:34;;;;;;;;;;;;;;;;;;4939672;29;19914;-87
2023/08/11 20:25:59;;;;;;;;;;;;;;;;;;4939241;29;19914;-88
2023/08/11 20:28:25;;;;;;;;;;;;;;;;;;4938934;29;19921;-88
2023/08/11 20:30:51;;;;;;;;;;;;;;;;;;4937732;29;19923;-88
2023/08/11 20:33:17;;;;;;;;;;;;;;;;;;4938948;29;19919;-88
2023/08/11 20:35:45;;;;;;;;;;;;;;;;;;4940659;29;19926;-88
2023/08/11 20:38:11;;;;;;;;;;;;;;;;;;4940298;29;20381;-88
2023/08/11 20:40:36;;;;;;;;;;;;;;;;;;4959525;29;20058;-88
2023/08/11 20:43:03;;;;;;;;;;;;;;;;;;4942170;29;19919;-88
2023/08/11 20:45:30;;;;;;;;;;;;;;;;;;4940835;29;19925;-88
2023/08/11 20:47:56;;;;;;;;;;;;;;;;;;4958617;29;20444;-88
2023/08/11 20:50:21;;;;;;;;;;;;;;;;;;4958290;29;19921;-87
2023/08/11 20:52:47;;;;;;;;;;;;;;;;;;4957531;29;20284;-87
2023/08/11 20:55:12;;;;;;;;;;;;;;;;;;4959108;29;19910;-87
2023/08/11 20:57:37;;;;;;;;;;;;;;;;;;4941986;29;19918;-88
2023/08/11 21:00:05;;;;;;;;;;;;;;;;;;4940192;29;19914;-86
2023/08/11 21:02:32;;;;;;;;;;;;;;;;;;4958261;29;19918;-88
2023/08/11 21:04:57;;;;;;;;;;;;;;;;;;4958134;29;19914;-88
2023/08/11 21:07:23;;;;;;;;;;;;;;;;;;4957373;29;19911;-88
2023/08/11 21:09:48;;;;;;;;;;;;;;;;;;4957248;29;19914;-88
2023/08/11 21:12:14;;;;;;;;;;;;;;;;;;4940114;29;19921;-88
2023/08/11 21:14:39;;;;;;;;;;;;;;;;;;4957124;29;20059;-87
2023/08/11 21:17:04;;;;;;;;;;;;;;;;;;4956961;29;19914;-88
2023/08/11 21:19:30;;;;;;;;;;;;;;;;;;4956708;29;20069;-88
2023/08/11 21:21:55;;;;;;;;;;;;;;;;;;4956749;29;19969;-89
2023/08/11 21:24:20;;;;;;;;;;;;;;;;;;4939471;29;20286;-87
2023/08/11 21:26:46;;;;;;;;;;;;;;;;;;4956571;28;19957;-87
2023/08/11 21:29:11;;;;;;;;;;;;;;;;;;4957145;29;20296;-87
2023/08/11 21:31:37;;;;;;;;;;;;;;;;;;4956897;29;19915;-88
2023/08/11 21:34:05;;;;;;;;;;;;;;;;;;4939343;29;19922;-89
2023/08/11 21:36:32;;;;;;;;;;;;;;;;;;4957238;29;19961;-90
2023/08/11 21:39:01;;;;;;;;;;;;;;;;;;4957008;29;19946;-88
2023/08/11 21:41:30;;;;;;;;;;;;;;;;;;4940242;29;19919;-87
2023/08/11 21:43:55;;;;;;;;;;;;;;;;;;4956365;29;19912;-86
2023/08/11 21:46:21;;;;;;;;;;;;;;;;;;4956638;29;19921;-87
2023/08/11 21:48:46;;;;;;;;;;;;;;;;;;4957102;29;19914;-88
2023/08/11 21:51:12;;;;;;;;;;;;;;;;;;4940348;29;19914;-88
2023/08/11 21:53:37;;;;;;;;;;;;;;;;;;4939634;29;20061;-88
2023/08/11 21:56:06;;;;;;;;;;;;;;;;;;4940557;29;19918;-88
2023/08/11 21:58:31;;;;;;;;;;;;;;;;;;4939842;29;19915;-89
2023/08/11 22:00:57;;;;;;;;;;;;;;;;;;4940019;29;20277;-88
2023/08/11 22:03:22;;;;;;;;;;;;;;;;;;4956878;29;20012;-89
2023/08/11 22:05:47;;;;;;;;;;;;;;;;;;4956817;29;19973;-88
2023/08/11 22:08:13;;;;;;;;;;;;;;;;;;4957349;29;20001;-88
2023/08/11 22:10:39;;;;;;;;;;;;;;;;;;4957374;29;19918;-89
2023/08/11 22:13:05;;;;;;;;;;;;;;;;;;4956431;29;20277;-88
2023/08/11 22:15:30;;;;;;;;;;;;;;;;;;4956646;29;19930;-88
2023/08/11 22:17:56;;;;;;;;;;;;;;;;;;4957922;29;19918;-88
2023/08/11 22:20:21;;;;;;;;;;;;;;;;;;4960157;29;19980;-88
2023/08/11 22:22:46;;;;;;;;;;;;;;;;;;4956522;29;19914;-88
2023/08/11 22:25:12;;;;;;;;;;;;;;;;;;4939815;29;19981;-89
2023/08/11 22:27:37;;;;;;;;;;;;;;;;;;4957034;29;19921;-88
2023/08/11 22:30:04;;;;;;;;;;;;;;;;;;4956596;29;20013;-90
2023/08/11 22:32:29;;;;;;;;;;;;;;;;;;4955997;29;19919;-90
2023/08/11 22:34:55;;;;;;;;;;;;;;;;;;4955592;29;19925;-88
2023/08/11 22:37:22;;;;;;;;;;;;;;;;;;4939009;29;19921;-89
2023/08/11 22:39:49;;;;;;;;;;;;;;;;;;4940468;29;19910;-89
